Time;durP1;ratioP1;P1;durP2;ratioP2;P2;SDS_P1;SDS_P2;PMS_P1;PMS_P2;Temp;Humidity;BMP_temperature;BMP_pressure;BME280_temperature;BME280_humidity;BME280_pressure;Samples;Min_cycle;Max_cycle;Signal;HPM_P1;HPM_P2
2023/03/30 00:00:41;;;;;;;;;;;19.70;38.00;;;;;;1530171;77;700;-61
2023/03/30 00:02:44;;;;;;;;;;;19.70;38.00;;;;;;1535096;77;1707;-60
2023/03/30 00:04:46;;;;;;;;;;;19.80;37.90;;;;;;1527610;77;1921;-60
2023/03/30 00:06:49;;;;;;;;;;;19.70;37.90;;;;;;1544432;77;605;-60
2023/03/30 00:08:52;;;;;;;;;;;19.70;37.90;;;;;;1540441;77;675;-62
2023/03/30 00:11:02;;;;;;;;;;;19.70;38.00;;;;;;1523726;77;756;-60
2023/03/30 00:13:04;;;;;;;;;;;19.80;37.90;;;;;;1527977;77;1828;-60
2023/03/30 00:15:08;;;;;;;;;;;19.70;37.90;;;;;;1529066;77;743;-59
2023/03/30 00:17:10;;;;;;;;;;;19.70;37.90;;;;;;1543798;77;647;-60
2023/03/30 00:19:12;;;;;;;;;;;19.80;37.90;;;;;;1528873;77;1451;-60
2023/03/30 00:21:16;;;;;;;;;;;19.70;37.80;;;;;;1529592;77;712;-60
2023/03/30 00:23:17;;;;;;;;;;;19.70;37.90;;;;;;1534120;77;1668;-61
2023/03/30 00:25:19;;;;;;;;;;;19.70;37.90;;;;;;1547292;77;1913;-60
2023/03/30 00:27:21;;;;;;;;;;;19.70;37.90;;;;;;1544414;77;742;-61
2023/03/30 00:29:23;;;;;;;;;;;19.80;37.90;;;;;;1542883;77;793;-59
2023/03/30 00:31:25;;;;;;;;;;;19.80;37.90;;;;;;1533118;77;1348;-59
2023/03/30 00:33:27;;;;;;;;;;;19.70;37.90;;;;;;1538988;77;1203;-60
2023/03/30 00:35:31;;;;;;;;;;;19.70;37.80;;;;;;1547872;77;920;-60
2023/03/30 00:37:36;;;;;;;;;;;19.70;37.90;;;;;;1535829;77;685;-60
2023/03/30 00:39:37;;;;;;;;;;;19.70;37.90;;;;;;1541836;77;1729;-60
2023/03/30 00:41:39;;;;;;;;;;;19.60;37.70;;;;;;1546499;77;672;-61
2023/03/30 00:43:58;;;;;;;;;;;19.70;37.90;;;;;;1545695;77;1162;-59
2023/03/30 00:46:00;;;;;;;;;;;19.80;38.00;;;;;;1546368;77;1935;-60
2023/03/30 00:48:06;;;;;;;;;;;19.80;37.80;;;;;;1539093;77;802;-59
2023/03/30 00:50:08;;;;;;;;;;;19.70;37.90;;;;;;1541548;77;753;-60
2023/03/30 00:52:10;;;;;;;;;;;19.80;37.90;;;;;;1542669;77;975;-59
2023/03/30 00:54:13;;;;;;;;;;;19.70;37.90;;;;;;1538076;77;1133;-59
2023/03/30 00:56:16;;;;;;;;;;;19.80;37.90;;;;;;1537584;77;685;-60
2023/03/30 00:58:18;;;;;;;;;;;19.70;37.80;;;;;;1540288;77;774;-60
2023/03/30 01:00:20;;;;;;;;;;;19.70;38.10;;;;;;1534402;77;1488;-59
2023/03/30 01:02:22;;;;;;;;;;;19.70;38.10;;;;;;1532344;77;749;-60
2023/03/30 01:04:24;;;;;;;;;;;19.80;38.10;;;;;;1533059;77;1220;-59
2023/03/30 01:06:28;;;;;;;;;;;19.80;38.10;;;;;;1540473;77;1914;-59
2023/03/30 01:08:33;;;;;;;;;;;19.80;38.10;;;;;;1540486;77;1714;-60
2023/03/30 01:10:35;;;;;;;;;;;19.70;38.10;;;;;;1540935;77;696;-59
2023/03/30 01:12:37;;;;;;;;;;;19.80;38.10;;;;;;1535879;77;1188;-58
2023/03/30 01:14:40;;;;;;;;;;;19.70;38.10;;;;;;1537408;77;1216;-61
2023/03/30 01:16:44;;;;;;;;;;;19.70;38.00;;;;;;1537301;77;802;-59
2023/03/30 01:18:53;;;;;;;;;;;19.70;38.10;;;;;;1533983;77;729;-61
2023/03/30 01:20:55;;;;;;;;;;;19.70;38.10;;;;;;1536066;77;1642;-59
2023/03/30 01:23:11;;;;;;;;;;;19.80;38.10;;;;;;1536518;77;1161;-59
2023/03/30 01:25:20;;;;;;;;;;;19.70;38.10;;;;;;1546714;77;2069;-60
2023/03/30 01:27:45;;;;;;;;;;;19.70;38.10;;;;;;1547466;77;757;-59
2023/03/30 01:29:46;;;;;;;;;;;19.70;38.10;;;;;;1544886;77;1578;-61
2023/03/30 01:31:53;;;;;;;;;;;19.80;38.10;;;;;;1537116;77;821;-61
2023/03/30 01:33:56;;;;;;;;;;;19.70;38.10;;;;;;1546103;77;1666;-59
2023/03/30 01:36:00;;;;;;;;;;;19.80;38.10;;;;;;1545373;77;772;-60
2023/03/30 01:38:09;;;;;;;;;;;19.70;38.10;;;;;;1546453;77;792;-61
2023/03/30 01:40:18;;;;;;;;;;;19.70;38.10;;;;;;1536608;77;679;-59
2023/03/30 01:42:21;;;;;;;;;;;19.70;38.10;;;;;;1539001;77;1534;-59
2023/03/30 01:44:27;;;;;;;;;;;19.60;38.10;;;;;;1539063;77;1087;-61
2023/03/30 01:46:30;;;;;;;;;;;19.70;38.20;;;;;;1544836;77;1942;-59
2023/03/30 01:48:44;;;;;;;;;;;19.70;38.10;;;;;;1538824;77;719;-59
2023/03/30 01:50:49;;;;;;;;;;;19.70;38.10;;;;;;1534613;77;1801;-59
2023/03/30 01:52:55;;;;;;;;;;;19.70;38.00;;;;;;1544909;77;1147;-59
2023/03/30 01:54:59;;;;;;;;;;;19.70;38.10;;;;;;1524826;77;781;-59
2023/03/30 01:57:14;;;;;;;;;;;19.80;38.00;;;;;;1535562;77;1361;-60
2023/03/30 01:59:26;;;;;;;;;;;19.80;38.00;;;;;;1539409;77;694;-59
2023/03/30 02:01:29;;;;;;;;;;;19.80;38.00;;;;;;1539207;77;733;-59
2023/03/30 02:03:31;;;;;;;;;;;19.70;38.00;;;;;;1533888;77;1172;-60
2023/03/30 02:05:33;;;;;;;;;;;19.80;38.10;;;;;;1534532;77;1934;-62
2023/03/30 02:07:35;;;;;;;;;;;19.80;38.10;;;;;;1533645;77;750;-61
2023/03/30 02:09:37;;;;;;;;;;;19.80;38.10;;;;;;1525285;77;815;-60
2023/03/30 02:11:39;;;;;;;;;;;19.80;38.10;;;;;;1531383;77;1502;-61
2023/03/30 02:13:41;;;;;;;;;;;19.80;38.10;;;;;;1533659;77;1161;-59
2023/03/30 02:15:44;;;;;;;;;;;19.80;38.30;;;;;;1539262;77;735;-60
2023/03/30 02:17:47;;;;;;;;;;;19.80;38.10;;;;;;1526939;77;801;-59
2023/03/30 02:19:49;;;;;;;;;;;19.80;38.20;;;;;;1524637;77;712;-58
2023/03/30 02:21:50;;;;;;;;;;;19.80;38.20;;;;;;1528935;77;646;-59
2023/03/30 02:23:53;;;;;;;;;;;19.80;38.30;;;;;;1537764;77;1503;-60
2023/03/30 02:25:55;;;;;;;;;;;19.80;38.50;;;;;;1544387;75;2237;-59
2023/03/30 02:27:57;;;;;;;;;;;19.80;38.60;;;;;;1534910;77;723;-60
2023/03/30 02:29:59;;;;;;;;;;;19.80;38.60;;;;;;1535047;77;779;-60
2023/03/30 02:32:01;;;;;;;;;;;19.70;38.70;;;;;;1524772;77;927;-60
2023/03/30 02:34:04;;;;;;;;;;;19.70;38.80;;;;;;1544364;77;1153;-61
2023/03/30 02:36:23;;;;;;;;;;;19.70;38.90;;;;;;1543297;77;1875;-59
2023/03/30 02:38:27;;;;;;;;;;;19.70;39.00;;;;;;1537324;77;1505;-61
2023/03/30 02:40:33;;;;;;;;;;;19.70;39.00;;;;;;1522085;77;1854;-59
2023/03/30 02:42:55;;;;;;;;;;;19.60;39.10;;;;;;1529006;77;1151;-59
2023/03/30 02:45:05;;;;;;;;;;;19.70;39.30;;;;;;1535096;77;779;-61
2023/03/30 02:47:08;;;;;;;;;;;19.70;39.40;;;;;;1543011;77;734;-60
2023/03/30 02:49:27;;;;;;;;;;;19.70;39.30;;;;;;1541453;77;644;-60
2023/03/30 02:51:39;;;;;;;;;;;19.70;39.40;;;;;;1527435;77;2179;-61
2023/03/30 02:53:46;;;;;;;;;;;19.70;39.30;;;;;;1530638;77;1490;-60
2023/03/30 02:55:55;;;;;;;;;;;19.60;39.50;;;;;;1540288;77;774;-60
2023/03/30 02:58:04;;;;;;;;;;;19.60;39.40;;;;;;1528872;77;1942;-65
2023/03/30 03:00:10;;;;;;;;;;;19.60;40.00;;;;;;1538761;77;745;-59
2023/03/30 03:02:14;;;;;;;;;;;19.60;39.30;;;;;;1527725;77;1657;-59
2023/03/30 03:04:16;;;;;;;;;;;19.60;39.50;;;;;;1533344;77;1130;-60
2023/03/30 03:06:19;;;;;;;;;;;19.60;39.70;;;;;;1522832;77;1938;-59
2023/03/30 03:08:22;;;;;;;;;;;19.50;39.70;;;;;;1535900;77;746;-60
2023/03/30 03:10:24;;;;;;;;;;;19.60;39.40;;;;;;1535206;77;1560;-59
2023/03/30 03:12:31;;;;;;;;;;;19.60;39.50;;;;;;1540495;77;683;-60
2023/03/30 03:14:30;;;;;;;;;;;19.60;39.40;;;;;;1526401;77;1628;-60
2023/03/30 03:16:31;;;;;;;;;;;19.60;39.20;;;;;;1527970;77;722;-59
2023/03/30 03:18:38;;;;;;;;;;;19.70;39.20;;;;;;1539813;77;707;-59
2023/03/30 03:20:40;;;;;;;;;;;19.80;39.00;;;;;;1543973;77;1487;-60
2023/03/30 03:22:41;;;;;;;;;;;19.90;38.90;;;;;;1535965;77;1152;-60
2023/03/30 03:24:43;;;;;;;;;;;19.90;38.70;;;;;;1525988;77;712;-59
2023/03/30 03:26:45;;;;;;;;;;;19.90;38.60;;;;;;1527243;77;1915;-60
2023/03/30 03:28:47;;;;;;;;;;;19.90;38.50;;;;;;1547832;77;721;-60
2023/03/30 03:30:49;;;;;;;;;;;20.00;38.40;;;;;;1537517;77;697;-60
2023/03/30 03:32:51;;;;;;;;;;;20.00;38.30;;;;;;1533863;77;1147;-60
2023/03/30 03:34:53;;;;;;;;;;;20.00;38.40;;;;;;1542585;77;1483;-60
2023/03/30 03:36:55;;;;;;;;;;;20.00;38.50;;;;;;1544543;77;746;-59
2023/03/30 03:38:56;;;;;;;;;;;20.00;38.40;;;;;;1530935;77;671;-59
2023/03/30 03:40:58;;;;;;;;;;;20.00;38.40;;;;;;1539100;77;766;-60
2023/03/30 03:43:00;;;;;;;;;;;20.00;38.40;;;;;;1532264;77;1151;-60
2023/03/30 03:45:02;;;;;;;;;;;20.00;38.40;;;;;;1537371;77;798;-60
2023/03/30 03:47:04;;;;;;;;;;;20.00;38.30;;;;;;1539518;77;1940;-61
2023/03/30 03:49:06;;;;;;;;;;;20.00;38.30;;;;;;1534652;77;1478;-62
2023/03/30 03:51:08;;;;;;;;;;;20.00;38.40;;;;;;1526730;77;718;-61
2023/03/30 03:53:10;;;;;;;;;;;20.00;38.30;;;;;;1522427;77;1170;-60
2023/03/30 03:55:12;;;;;;;;;;;20.00;38.40;;;;;;1534343;77;716;-59
2023/03/30 03:57:14;;;;;;;;;;;20.00;38.20;;;;;;1538592;77;723;-59
2023/03/30 03:59:16;;;;;;;;;;;20.00;38.20;;;;;;1542301;77;917;-59
2023/03/30 04:01:18;;;;;;;;;;;20.00;38.30;;;;;;1526674;77;648;-59
2023/03/30 04:03:20;;;;;;;;;;;19.90;38.40;;;;;;1536618;75;1372;-60
2023/03/30 04:05:22;;;;;;;;;;;20.00;38.40;;;;;;1538571;77;741;-60
2023/03/30 04:07:24;;;;;;;;;;;20.00;38.40;;;;;;1535144;77;1901;-60
2023/03/30 04:09:26;;;;;;;;;;;20.00;38.40;;;;;;1528716;77;724;-60
2023/03/30 04:11:28;;;;;;;;;;;20.00;38.30;;;;;;1547506;77;743;-61
2023/03/30 04:13:30;;;;;;;;;;;20.00;38.20;;;;;;1537866;77;1281;-58
2023/03/30 04:15:32;;;;;;;;;;;20.00;38.20;;;;;;1539748;77;701;-61
2023/03/30 04:17:35;;;;;;;;;;;19.90;38.80;;;;;;1531905;77;1605;-60
2023/03/30 04:19:37;;;;;;;;;;;19.90;38.50;;;;;;1540971;77;679;-60
2023/03/30 04:21:39;;;;;;;;;;;20.00;38.40;;;;;;1543986;77;695;-61
2023/03/30 04:23:44;;;;;;;;;;;20.00;38.20;;;;;;1528584;77;1175;-60
2023/03/30 04:25:45;;;;;;;;;;;20.00;38.20;;;;;;1545405;77;1916;-61
2023/03/30 04:27:50;;;;;;;;;;;20.00;38.10;;;;;;1539146;77;827;-60
2023/03/30 04:29:52;;;;;;;;;;;19.90;38.10;;;;;;1531779;77;688;-59
2023/03/30 04:31:55;;;;;;;;;;;20.00;38.10;;;;;;1547896;77;1555;-60
2023/03/30 04:33:57;;;;;;;;;;;20.00;38.10;;;;;;1537398;77;1255;-60
2023/03/30 04:35:59;;;;;;;;;;;20.00;38.10;;;;;;1543919;77;724;-60
2023/03/30 04:38:01;;;;;;;;;;;20.00;38.10;;;;;;1536620;77;665;-59
2023/03/30 04:40:08;;;;;;;;;;;20.00;37.90;;;;;;1547903;77;793;-59
2023/03/30 04:42:12;;;;;;;;;;;19.90;37.90;;;;;;1535565;77;1199;-59
2023/03/30 04:44:11;;;;;;;;;;;20.00;38.00;;;;;;1531253;77;1703;-60
2023/03/30 04:46:12;;;;;;;;;;;19.90;38.00;;;;;;1539683;77;1906;-61
2023/03/30 04:48:14;;;;;;;;;;;20.00;37.90;;;;;;1535315;77;774;-60
2023/03/30 04:50:16;;;;;;;;;;;19.90;38.00;;;;;;1530950;77;673;-60
2023/03/30 04:52:18;;;;;;;;;;;19.90;38.10;;;;;;1531049;77;738;-60
2023/03/30 04:54:20;;;;;;;;;;;20.00;38.10;;;;;;1526712;77;1135;-59
2023/03/30 04:56:22;;;;;;;;;;;19.90;38.10;;;;;;1530810;77;745;-60
2023/03/30 04:58:24;;;;;;;;;;;19.90;38.10;;;;;;1531220;77;663;-60
2023/03/30 05:00:30;;;;;;;;;;;19.90;38.10;;;;;;1530545;77;1669;-61
2023/03/30 05:02:30;;;;;;;;;;;19.80;38.00;;;;;;1546415;77;1196;-59
2023/03/30 05:04:31;;;;;;;;;;;19.90;38.10;;;;;;1541299;77;683;-60
2023/03/30 05:06:33;;;;;;;;;;;19.80;38.00;;;;;;1534147;77;1922;-59
2023/03/30 05:08:35;;;;;;;;;;;19.90;38.30;;;;;;1529681;77;709;-59
2023/03/30 05:10:37;;;;;;;;;;;19.80;38.30;;;;;;1531943;77;732;-61
2023/03/30 05:12:39;;;;;;;;;;;19.90;38.50;;;;;;1533395;77;1561;-60
2023/03/30 05:14:41;;;;;;;;;;;19.80;38.40;;;;;;1540077;77;682;-59
2023/03/30 05:16:43;;;;;;;;;;;19.80;38.60;;;;;;1539839;77;724;-60
2023/03/30 05:18:45;;;;;;;;;;;19.80;38.50;;;;;;1536418;77;724;-59
2023/03/30 05:20:47;;;;;;;;;;;19.80;38.70;;;;;;1535620;77;719;-60
2023/03/30 05:22:49;;;;;;;;;;;19.90;38.90;;;;;;1539943;77;1159;-59
2023/03/30 05:24:51;;;;;;;;;;;19.90;38.90;;;;;;1545953;77;694;-60
2023/03/30 05:26:53;;;;;;;;;;;19.90;39.00;;;;;;1537550;77;1943;-60
2023/03/30 05:28:55;;;;;;;;;;;19.90;39.20;;;;;;1530311;77;728;-59
2023/03/30 05:30:57;;;;;;;;;;;19.80;39.90;;;;;;1540741;77;725;-61
2023/03/30 05:32:59;;;;;;;;;;;19.80;40.20;;;;;;1543511;77;1137;-61
2023/03/30 05:35:00;;;;;;;;;;;19.70;40.50;;;;;;1529104;77;725;-60
2023/03/30 05:37:02;;;;;;;;;;;19.60;40.50;;;;;;1534647;77;663;-60
2023/03/30 05:39:05;;;;;;;;;;;19.60;41.30;;;;;;1540127;77;732;-61
2023/03/30 05:41:07;;;;;;;;;;;19.50;41.80;;;;;;1529583;77;1556;-60
2023/03/30 05:43:09;;;;;;;;;;;19.60;41.40;;;;;;1541028;77;1150;-59
2023/03/30 05:45:11;;;;;;;;;;;19.50;41.30;;;;;;1539907;77;798;-60
2023/03/30 05:47:15;;;;;;;;;;;19.60;41.10;;;;;;1542816;77;1909;-60
2023/03/30 05:49:17;;;;;;;;;;;19.50;41.20;;;;;;1532095;77;701;-59
2023/03/30 05:51:19;;;;;;;;;;;19.50;41.20;;;;;;1529187;77;655;-59
2023/03/30 05:53:21;;;;;;;;;;;19.60;41.40;;;;;;1533756;77;1177;-59
2023/03/30 05:55:23;;;;;;;;;;;19.60;41.00;;;;;;1540326;77;1688;-60
2023/03/30 05:57:25;;;;;;;;;;;19.60;41.20;;;;;;1547805;77;614;-59
2023/03/30 05:59:26;;;;;;;;;;;19.50;41.00;;;;;;1546450;77;702;-60
2023/03/30 06:01:28;;;;;;;;;;;19.60;41.00;;;;;;1538868;77;673;-60
2023/03/30 06:03:30;;;;;;;;;;;19.60;41.10;;;;;;1539783;77;1156;-60
2023/03/30 06:05:34;;;;;;;;;;;19.70;41.30;;;;;;1539114;77;645;-60
2023/03/30 06:07:36;;;;;;;;;;;19.80;40.90;;;;;;1545532;77;1947;-60
2023/03/30 06:09:38;;;;;;;;;;;19.80;40.80;;;;;;1537461;77;1348;-60
2023/03/30 06:11:40;;;;;;;;;;;20.00;40.60;;;;;;1533792;77;1058;-60
2023/03/30 06:13:42;;;;;;;;;;;20.00;40.60;;;;;;1538355;77;1189;-60
2023/03/30 06:15:46;;;;;;;;;;;19.90;40.70;;;;;;1540302;77;730;-59
2023/03/30 06:17:48;;;;;;;;;;;19.80;40.50;;;;;;1540269;77;1068;-60
2023/03/30 06:19:50;;;;;;;;;;;19.80;40.70;;;;;;1537574;77;757;-61
2023/03/30 06:21:52;;;;;;;;;;;19.60;40.50;;;;;;1540742;77;733;-58
2023/03/30 06:23:54;;;;;;;;;;;19.70;40.70;;;;;;1533425;77;1518;-59
2023/03/30 06:25:58;;;;;;;;;;;19.70;40.70;;;;;;1534663;77;697;-59
2023/03/30 06:28:00;;;;;;;;;;;19.80;40.50;;;;;;1528924;77;1901;-60
2023/03/30 06:30:02;;;;;;;;;;;19.80;40.20;;;;;;1544765;77;1096;-59
2023/03/30 06:32:04;;;;;;;;;;;19.90;40.00;;;;;;1532974;77;742;-59
2023/03/30 06:34:06;;;;;;;;;;;20.00;39.60;;;;;;1542722;77;1154;-58
2023/03/30 06:36:12;;;;;;;;;;;20.00;39.40;;;;;;1542483;77;696;-60
2023/03/30 06:38:15;;;;;;;;;;;20.10;39.30;;;;;;1540543;77;1521;-60
2023/03/30 06:40:17;;;;;;;;;;;20.10;39.10;;;;;;1545885;77;719;-61
2023/03/30 06:42:19;;;;;;;;;;;20.10;39.00;;;;;;1545338;77;717;-61
2023/03/30 06:44:22;;;;;;;;;;;20.20;38.90;;;;;;1529829;77;1123;-60
2023/03/30 06:46:23;;;;;;;;;;;20.10;38.80;;;;;;1538466;77;813;-60
2023/03/30 06:48:25;;;;;;;;;;;20.20;38.60;;;;;;1539453;77;1947;-60
2023/03/30 06:50:27;;;;;;;;;;;20.10;38.60;;;;;;1532607;77;746;-61
2023/03/30 06:52:29;;;;;;;;;;;20.00;38.60;;;;;;1522745;77;1608;-60
2023/03/30 06:54:31;;;;;;;;;;;20.10;38.60;;;;;;1527434;77;775;-61
2023/03/30 06:56:33;;;;;;;;;;;20.20;38.50;;;;;;1537697;77;731;-61
2023/03/30 06:58:35;;;;;;;;;;;20.20;38.50;;;;;;1544659;77;717;-60
2023/03/30 07:00:37;;;;;;;;;;;20.10;38.50;;;;;;1543303;77;679;-61
2023/03/30 07:02:39;;;;;;;;;;;20.10;38.60;;;;;;1528944;77;1166;-60
2023/03/30 07:04:41;;;;;;;;;;;20.00;38.50;;;;;;1532621;77;682;-60
2023/03/30 07:06:43;;;;;;;;;;;20.00;38.50;;;;;;1535106;77;1922;-60
2023/03/30 07:08:45;;;;;;;;;;;20.00;38.60;;;;;;1530032;77;1145;-60
2023/03/30 07:10:47;;;;;;;;;;;20.00;38.60;;;;;;1544702;77;1563;-61
2023/03/30 07:12:49;;;;;;;;;;;20.00;38.60;;;;;;1538994;77;1406;-60
2023/03/30 07:14:51;;;;;;;;;;;20.00;38.60;;;;;;1533573;77;1461;-62
2023/03/30 07:16:53;;;;;;;;;;;20.00;38.50;;;;;;1542421;75;1454;-60
2023/03/30 07:18:55;;;;;;;;;;;20.00;38.40;;;;;;1533579;75;1416;-60
2023/03/30 07:20:58;;;;;;;;;;;20.00;38.40;;;;;;1544007;77;1536;-61
2023/03/30 07:23:01;;;;;;;;;;;20.00;38.40;;;;;;1542186;75;1449;-59
2023/03/30 07:25:03;;;;;;;;;;;20.00;38.50;;;;;;1540953;77;1313;-62
2023/03/30 07:27:05;;;;;;;;;;;20.00;38.40;;;;;;1540836;75;1925;-61
2023/03/30 07:29:07;;;;;;;;;;;20.20;38.30;;;;;;1535396;75;1523;-59
2023/03/30 07:31:12;;;;;;;;;;;20.20;38.10;;;;;;1533610;75;1419;-61
2023/03/30 07:33:13;;;;;;;;;;;20.20;38.00;;;;;;1539370;75;1510;-62
2023/03/30 07:35:16;;;;;;;;;;;20.30;38.10;;;;;;1538516;75;1089;-61
2023/03/30 07:37:17;;;;;;;;;;;20.20;37.80;;;;;;1531882;75;1067;-63
2023/03/30 07:39:19;;;;;;;;;;;20.30;37.90;;;;;;1539386;75;1444;-65
2023/03/30 07:41:22;;;;;;;;;;;20.30;38.40;;;;;;1538762;75;1567;-60
2023/03/30 07:43:23;;;;;;;;;;;20.20;38.00;;;;;;1538038;77;1320;-61
2023/03/30 07:45:25;;;;;;;;;;;20.30;38.10;;;;;;1532955;75;1389;-59
2023/03/30 07:47:27;;;;;;;;;;;20.20;37.90;;;;;;1541080;75;1932;-59
2023/03/30 07:49:30;;;;;;;;;;;20.20;37.80;;;;;;1540006;77;1149;-65
2023/03/30 07:51:33;;;;;;;;;;;20.20;37.80;;;;;;1536974;77;1411;-60
2023/03/30 07:53:35;;;;;;;;;;;20.20;37.90;;;;;;1531733;77;1175;-61
2023/03/30 07:55:37;;;;;;;;;;;20.20;38.00;;;;;;1542344;77;1361;-62
2023/03/30 07:57:39;;;;;;;;;;;20.20;38.00;;;;;;1537746;77;1308;-61
2023/03/30 07:59:41;;;;;;;;;;;20.20;38.00;;;;;;1544152;77;1360;-60
2023/03/30 08:01:43;;;;;;;;;;;20.10;38.10;;;;;;1540746;77;1536;-61
2023/03/30 08:03:46;;;;;;;;;;;20.20;38.10;;;;;;1542438;77;1158;-61
2023/03/30 08:05:52;;;;;;;;;;;20.20;38.10;;;;;;1534856;77;1099;-61
2023/03/30 08:07:54;;;;;;;;;;;20.20;38.10;;;;;;1542239;77;1924;-62
2023/03/30 08:09:56;;;;;;;;;;;20.10;38.10;;;;;;1542226;77;1195;-60
2023/03/30 08:11:59;;;;;;;;;;;20.20;38.10;;;;;;1542598;77;1116;-61
2023/03/30 08:14:01;;;;;;;;;;;20.20;38.10;;;;;;1540298;77;1163;-60
2023/03/30 08:16:04;;;;;;;;;;;20.20;38.10;;;;;;1545129;77;1466;-59
2023/03/30 08:18:06;;;;;;;;;;;20.10;38.10;;;;;;1538705;77;1270;-60
2023/03/30 08:20:10;;;;;;;;;;;20.10;38.20;;;;;;1546687;77;1150;-61
2023/03/30 08:22:12;;;;;;;;;;;20.10;38.20;;;;;;1533240;77;1461;-62
2023/03/30 08:24:14;;;;;;;;;;;20.10;38.10;;;;;;1543698;77;1518;-60
2023/03/30 08:26:15;;;;;;;;;;;20.10;38.20;;;;;;1534916;77;1156;-60
2023/03/30 08:28:18;;;;;;;;;;;20.10;38.20;;;;;;1542958;77;1932;-59
2023/03/30 08:30:20;;;;;;;;;;;20.20;38.20;;;;;;1538321;77;1405;-62
2023/03/30 08:32:22;;;;;;;;;;;20.10;38.20;;;;;;1533209;77;1212;-61
2023/03/30 08:34:25;;;;;;;;;;;20.10;38.30;;;;;;1539680;77;1167;-61
2023/03/30 08:36:27;;;;;;;;;;;20.20;38.30;;;;;;1541739;77;1221;-61
2023/03/30 08:38:29;;;;;;;;;;;20.10;38.30;;;;;;1536515;77;1155;-62
2023/03/30 08:40:31;;;;;;;;;;;20.10;38.20;;;;;;1531352;77;1220;-61
2023/03/30 08:42:35;;;;;;;;;;;20.10;38.20;;;;;;1541712;77;1274;-61
2023/03/30 08:44:39;;;;;;;;;;;20.10;38.30;;;;;;1539534;77;1430;-59
2023/03/30 08:46:41;;;;;;;;;;;20.10;38.30;;;;;;1521112;77;1333;-60
2023/03/30 08:48:43;;;;;;;;;;;20.10;38.30;;;;;;1541024;77;1933;-60
2023/03/30 08:50:50;;;;;;;;;;;20.00;38.40;;;;;;1545022;77;1167;-61
2023/03/30 08:52:51;;;;;;;;;;;20.10;38.40;;;;;;1534235;77;1620;-64
2023/03/30 08:54:53;;;;;;;;;;;20.30;38.40;;;;;;1528255;77;1192;-61
2023/03/30 08:56:57;;;;;;;;;;;20.10;38.20;;;;;;1541190;77;1244;-61
2023/03/30 08:59:00;;;;;;;;;;;20.10;38.20;;;;;;1541577;77;1431;-61
2023/03/30 09:01:07;;;;;;;;;;;20.10;38.20;;;;;;1539517;77;1522;-61
2023/03/30 09:03:14;;;;;;;;;;;20.10;38.20;;;;;;1541926;77;1289;-62
2023/03/30 09:05:24;;;;;;;;;;;20.10;38.30;;;;;;1537546;77;1164;-61
2023/03/30 09:07:27;;;;;;;;;;;20.20;38.40;;;;;;1536988;77;1936;-61
2023/03/30 09:09:29;;;;;;;;;;;20.20;38.40;;;;;;1537874;77;1153;-61
2023/03/30 09:11:33;;;;;;;;;;;20.20;38.50;;;;;;1543591;77;1179;-61
2023/03/30 09:13:36;;;;;;;;;;;20.20;38.50;;;;;;1540083;77;1691;-61
2023/03/30 09:15:43;;;;;;;;;;;20.20;38.40;;;;;;1535700;77;1121;-62
2023/03/30 09:18:03;;;;;;;;;;;20.20;38.40;;;;;;1541368;77;1481;-61
2023/03/30 09:20:15;;;;;;;;;;;20.20;38.40;;;;;;1533810;77;1207;-62
2023/03/30 09:22:17;;;;;;;;;;;20.20;38.40;;;;;;1534730;77;1118;-61
2023/03/30 09:24:21;;;;;;;;;;;20.30;38.50;;;;;;1533070;77;1382;-60
2023/03/30 09:26:25;;;;;;;;;;;20.30;38.50;;;;;;1541377;77;1763;-61
2023/03/30 09:28:31;;;;;;;;;;;20.30;38.50;;;;;;1534879;77;1914;-59
2023/03/30 09:30:44;;;;;;;;;;;20.30;38.40;;;;;;1547983;77;1197;-59
2023/03/30 09:32:47;;;;;;;;;;;20.30;38.50;;;;;;1539120;77;1746;-61
2023/03/30 09:34:54;;;;;;;;;;;20.30;38.30;;;;;;1532758;77;1224;-63
2023/03/30 09:36:57;;;;;;;;;;;20.30;38.40;;;;;;1545993;77;1443;-60
2023/03/30 09:38:59;;;;;;;;;;;20.30;38.40;;;;;;1540088;77;1042;-61
2023/03/30 09:41:06;;;;;;;;;;;20.30;38.40;;;;;;1541032;77;1451;-61
2023/03/30 09:43:20;;;;;;;;;;;20.30;38.40;;;;;;1533246;77;1687;-59
2023/03/30 09:45:31;;;;;;;;;;;20.20;38.40;;;;;;1531674;77;1143;-60
2023/03/30 09:47:37;;;;;;;;;;;20.20;38.40;;;;;;1515966;77;1948;-63
2023/03/30 09:49:39;;;;;;;;;;;20.20;38.40;;;;;;1544529;77;1332;-60
2023/03/30 09:51:54;;;;;;;;;;;20.20;38.40;;;;;;1535284;77;1122;-61
2023/03/30 09:54:00;;;;;;;;;;;20.20;38.40;;;;;;1535681;77;1450;-61
2023/03/30 09:56:05;;;;;;;;;;;20.20;38.60;;;;;;1539169;77;1156;-61
2023/03/30 09:58:16;;;;;;;;;;;20.20;38.50;;;;;;1530491;77;1184;-64
2023/03/30 10:00:19;;;;;;;;;;;20.20;38.60;;;;;;1539973;77;1111;-60
2023/03/30 10:02:22;;;;;;;;;;;20.20;38.60;;;;;;1530540;77;1631;-61
2023/03/30 10:04:24;;;;;;;;;;;20.20;38.60;;;;;;1537557;77;1590;-60
2023/03/30 10:06:26;;;;;;;;;;;20.20;38.60;;;;;;1540433;77;1137;-62
2023/03/30 10:08:28;;;;;;;;;;;20.20;38.50;;;;;;1546843;77;1956;-59
2023/03/30 10:10:39;;;;;;;;;;;20.30;38.60;;;;;;1540381;77;1118;-59
2023/03/30 10:12:41;;;;;;;;;;;20.30;38.50;;;;;;1536190;77;1344;-60
2023/03/30 10:14:43;;;;;;;;;;;20.20;38.50;;;;;;1542064;77;1149;-61
2023/03/30 10:16:45;;;;;;;;;;;20.20;38.50;;;;;;1533221;77;1161;-60
2023/03/30 10:18:47;;;;;;;;;;;20.20;38.50;;;;;;1540957;77;1382;-60
2023/03/30 10:21:05;;;;;;;;;;;20.30;38.50;;;;;;1538910;77;1133;-59
2023/03/30 10:23:09;;;;;;;;;;;20.20;38.50;;;;;;1528579;77;1495;-60
2023/03/30 10:25:12;;;;;;;;;;;20.20;38.40;;;;;;1537410;77;1802;-63
2023/03/30 10:27:14;;;;;;;;;;;20.20;38.40;;;;;;1534669;77;1737;-62
2023/03/30 10:29:17;;;;;;;;;;;20.20;38.40;;;;;;1543080;77;1931;-60
2023/03/30 10:31:19;;;;;;;;;;;20.20;38.40;;;;;;1546648;77;638;-61
2023/03/30 10:33:20;;;;;;;;;;;20.20;38.50;;;;;;1545590;77;1157;-60
2023/03/30 10:35:27;;;;;;;;;;;20.20;38.70;;;;;;1545963;77;737;-60
2023/03/30 10:37:30;;;;;;;;;;;20.20;38.80;;;;;;1538643;77;1797;-60
2023/03/30 10:39:33;;;;;;;;;;;20.20;38.90;;;;;;1541562;77;1638;-61
2023/03/30 10:41:35;;;;;;;;;;;20.10;39.20;;;;;;1539296;77;734;-61
2023/03/30 10:43:37;;;;;;;;;;;20.20;39.30;;;;;;1546426;77;1150;-59
2023/03/30 10:45:41;;;;;;;;;;;20.20;39.20;;;;;;1535084;77;705;-60
2023/03/30 10:47:54;;;;;;;;;;;20.10;39.30;;;;;;1538144;77;728;-60
2023/03/30 10:50:00;;;;;;;;;;;20.10;39.50;;;;;;1536734;77;932;-62
2023/03/30 10:52:09;;;;;;;;;;;20.10;39.60;;;;;;1546611;77;1441;-61
2023/03/30 10:54:16;;;;;;;;;;;20.20;39.60;;;;;;1544001;77;1183;-59
2023/03/30 10:56:20;;;;;;;;;;;20.20;39.70;;;;;;1539510;77;760;-60
2023/03/30 10:58:26;;;;;;;;;;;20.20;40.00;;;;;;1545612;77;703;-59
2023/03/30 11:00:33;;;;;;;;;;;20.20;40.10;;;;;;1545446;77;743;-60
2023/03/30 11:02:45;;;;;;;;;;;20.20;39.90;;;;;;1543431;77;1234;-60
2023/03/30 11:04:48;;;;;;;;;;;20.20;40.00;;;;;;1518513;77;2417;-62
2023/03/30 11:06:52;;;;;;;;;;;20.10;40.80;;;;;;1542051;77;730;-61
2023/03/30 11:08:54;;;;;;;;;;;20.00;40.60;;;;;;1545111;77;1919;-60
2023/03/30 11:10:56;;;;;;;;;;;20.00;41.20;;;;;;1531855;77;728;-61
2023/03/30 11:12:59;;;;;;;;;;;20.00;41.40;;;;;;1534848;77;1165;-61
2023/03/30 11:15:02;;;;;;;;;;;20.00;41.60;;;;;;1532812;77;694;-60
2023/03/30 11:17:07;;;;;;;;;;;19.90;41.50;;;;;;1543777;77;643;-61
2023/03/30 11:19:14;;;;;;;;;;;20.00;41.50;;;;;;1540391;77;1436;-63
2023/03/30 11:21:27;;;;;;;;;;;20.00;41.70;;;;;;1536128;77;2163;-62
2023/03/30 11:23:42;;;;;;;;;;;19.90;41.80;;;;;;1545661;77;1138;-59
2023/03/30 11:26:01;;;;;;;;;;;20.00;41.50;;;;;;1547671;77;699;-60
2023/03/30 11:28:07;;;;;;;;;;;20.00;41.70;;;;;;1543220;77;1940;-61
2023/03/30 11:30:11;;;;;;;;;;;19.90;41.80;;;;;;1546362;77;1884;-60
2023/03/30 11:32:31;;;;;;;;;;;19.90;42.10;;;;;;1547173;77;585;-60
2023/03/30 11:34:47;;;;;;;;;;;19.80;42.00;;;;;;1535290;77;762;-60
2023/03/30 11:37:02;;;;;;;;;;;19.80;42.20;;;;;;1545213;77;1877;-61
2023/03/30 11:39:09;;;;;;;;;;;19.70;42.30;;;;;;1541952;77;790;-61
2023/03/30 11:41:15;;;;;;;;;;;19.80;42.30;;;;;;1536843;77;1239;-60
2023/03/30 11:43:18;;;;;;;;;;;19.80;42.20;;;;;;1543511;77;1146;-61
2023/03/30 11:45:38;;;;;;;;;;;19.80;42.00;;;;;;1546467;77;715;-60
2023/03/30 11:47:47;;;;;;;;;;;19.80;41.80;;;;;;1536489;77;1438;-60
2023/03/30 11:49:53;;;;;;;;;;;19.80;41.70;;;;;;1542905;77;1945;-62
2023/03/30 11:52:14;;;;;;;;;;;19.80;41.60;;;;;;1543033;77;1519;-61
2023/03/30 11:54:29;;;;;;;;;;;19.80;41.40;;;;;;1539897;77;1250;-59
2023/03/30 11:56:36;;;;;;;;;;;19.30;41.30;;;;;;1538693;75;1852;-60
2023/03/30 11:58:45;;;;;;;;;;;19.80;41.40;;;;;;1546737;77;1548;-61
2023/03/30 12:00:58;;;;;;;;;;;19.80;41.30;;;;;;1534435;77;1545;-59
2023/03/30 12:03:18;;;;;;;;;;;19.80;41.30;;;;;;1531566;77;1662;-59
2023/03/30 12:05:25;;;;;;;;;;;19.80;41.20;;;;;;1547027;77;1595;-60
2023/03/30 12:07:41;;;;;;;;;;;19.80;41.20;;;;;;1533663;77;1757;-60
2023/03/30 12:09:48;;;;;;;;;;;19.80;41.20;;;;;;1545507;77;2166;-60
2023/03/30 12:11:54;;;;;;;;;;;19.80;41.20;;;;;;1543872;77;1448;-60
2023/03/30 12:13:56;;;;;;;;;;;19.80;41.10;;;;;;1537780;77;1472;-60
2023/03/30 12:16:00;;;;;;;;;;;19.80;41.20;;;;;;1545620;77;1464;-61
2023/03/30 12:18:03;;;;;;;;;;;19.80;41.20;;;;;;1544591;77;1289;-60